sensor_id;sensor_type;location;lat;lon;timestamp;P1;durP1;ratioP1;P2;durP2;ratioP2
24261;SDS011;12385;51.412;5.540;2023-04-22T00:00:28;12.15;;;8.40;;
24261;SDS011;12385;51.412;5.540;2023-04-22T00:02:54;11.45;;;8.15;;
24261;SDS011;12385;51.412;5.540;2023-04-22T00:05:20;12.38;;;9.38;;
24261;SDS011;12385;51.412;5.540;2023-04-22T00:07:46;14.40;;;10.23;;
24261;SDS011;12385;51.412;5.540;2023-04-22T00:10:11;16.92;;;10.63;;
24261;SDS011;12385;51.412;5.540;2023-04-22T00:12:37;13.35;;;9.95;;
24261;SDS011;12385;51.412;5.540;2023-04-22T00:15:03;14.85;;;11.45;;
24261;SDS011;12385;51.412;5.540;2023-04-22T00:17:29;16.38;;;11.82;;
24261;SDS011;12385;51.412;5.540;2023-04-22T00:19:56;14.93;;;10.80;;
24261;SDS011;12385;51.412;5.540;2023-04-22T00:22:22;11.45;;;8.95;;
24261;SDS011;12385;51.412;5.540;2023-04-22T00:24:47;16.65;;;12.25;;
24261;SDS011;12385;51.412;5.540;2023-04-22T00:27:13;15.85;;;12.20;;
24261;SDS011;12385;51.412;5.540;2023-04-22T00:29:38;16.98;;;12.93;;
24261;SDS011;12385;51.412;5.540;2023-04-22T00:32:04;17.13;;;12.38;;
24261;SDS011;12385;51.412;5.540;2023-04-22T00:34:30;18.17;;;13.60;;
24261;SDS011;12385;51.412;5.540;2023-04-22T00:36:55;19.27;;;14.05;;
24261;SDS011;12385;51.412;5.540;2023-04-22T00:39:21;17.50;;;14.15;;
24261;SDS011;12385;51.412;5.540;2023-04-22T00:41:47;19.55;;;14.10;;
24261;SDS011;12385;51.412;5.540;2023-04-22T00:44:13;18.20;;;14.20;;
24261;SDS011;12385;51.412;5.540;2023-04-22T00:46:39;18.77;;;14.55;;
24261;SDS011;12385;51.412;5.540;2023-04-22T00:49:05;19.70;;;15.07;;
24261;SDS011;12385;51.412;5.540;2023-04-22T00:51:31;19.02;;;15.07;;
24261;SDS011;12385;51.412;5.540;2023-04-22T00:53:57;19.80;;;15.05;;
24261;SDS011;12385;51.412;5.540;2023-04-22T00:56:27;20.50;;;15.57;;
24261;SDS011;12385;51.412;5.540;2023-04-22T00:58:53;20.02;;;15.20;;
24261;SDS011;12385;51.412;5.540;2023-04-22T01:01:20;20.20;;;16.02;;
24261;SDS011;12385;51.412;5.540;2023-04-22T01:03:47;21.23;;;16.15;;
24261;SDS011;12385;51.412;5.540;2023-04-22T01:06:14;21.25;;;16.45;;
24261;SDS011;12385;51.412;5.540;2023-04-22T01:08:40;21.77;;;17.02;;
24261;SDS011;12385;51.412;5.540;2023-04-22T01:11:06;20.20;;;16.17;;
24261;SDS011;12385;51.412;5.540;2023-04-22T01:13:32;20.88;;;16.58;;
24261;SDS011;12385;51.412;5.540;2023-04-22T01:15:59;20.10;;;15.95;;
24261;SDS011;12385;51.412;5.540;2023-04-22T01:18:26;19.35;;;15.57;;
24261;SDS011;12385;51.412;5.540;2023-04-22T01:20:52;18.30;;;15.43;;
24261;SDS011;12385;51.412;5.540;2023-04-22T01:23:18;19.73;;;15.00;;
24261;SDS011;12385;51.412;5.540;2023-04-22T01:25:45;21.02;;;15.73;;
24261;SDS011;12385;51.412;5.540;2023-04-22T01:28:12;21.88;;;14.93;;
24261;SDS011;12385;51.412;5.540;2023-04-22T01:30:38;18.67;;;14.02;;
24261;SDS011;12385;51.412;5.540;2023-04-22T01:33:03;19.02;;;14.45;;
24261;SDS011;12385;51.412;5.540;2023-04-22T01:35:29;18.83;;;14.85;;
24261;SDS011;12385;51.412;5.540;2023-04-22T01:38:01;18.75;;;14.35;;
24261;SDS011;12385;51.412;5.540;2023-04-22T01:40:31;18.40;;;14.63;;
24261;SDS011;12385;51.412;5.540;2023-04-22T01:43:00;19.65;;;14.32;;
24261;SDS011;12385;51.412;5.540;2023-04-22T01:45:26;16.80;;;14.52;;
24261;SDS011;12385;51.412;5.540;2023-04-22T01:47:52;17.77;;;14.75;;
24261;SDS011;12385;51.412;5.540;2023-04-22T01:50:19;18.30;;;14.73;;
24261;SDS011;12385;51.412;5.540;2023-04-22T01:52:45;20.65;;;15.40;;
24261;SDS011;12385;51.412;5.540;2023-04-22T01:55:10;17.85;;;14.85;;
24261;SDS011;12385;51.412;5.540;2023-04-22T01:57:36;21.25;;;15.60;;
24261;SDS011;12385;51.412;5.540;2023-04-22T02:00:02;19.25;;;16.33;;
24261;SDS011;12385;51.412;5.540;2023-04-22T02:02:29;22.25;;;17.15;;
24261;SDS011;12385;51.412;5.540;2023-04-22T02:04:55;19.65;;;15.95;;
24261;SDS011;12385;51.412;5.540;2023-04-22T02:07:20;19.98;;;16.63;;
24261;SDS011;12385;51.412;5.540;2023-04-22T02:09:46;20.67;;;16.60;;
24261;SDS011;12385;51.412;5.540;2023-04-22T02:12:12;23.85;;;16.33;;
24261;SDS011;12385;51.412;5.540;2023-04-22T02:14:37;19.92;;;16.13;;
24261;SDS011;12385;51.412;5.540;2023-04-22T02:17:03;20.75;;;16.60;;
24261;SDS011;12385;51.412;5.540;2023-04-22T02:19:28;21.50;;;17.23;;
24261;SDS011;12385;51.412;5.540;2023-04-22T02:21:54;21.42;;;16.20;;
24261;SDS011;12385;51.412;5.540;2023-04-22T02:24:20;24.25;;;16.75;;
24261;SDS011;12385;51.412;5.540;2023-04-22T02:26:45;20.33;;;16.25;;
24261;SDS011;12385;51.412;5.540;2023-04-22T02:29:11;21.90;;;16.48;;
24261;SDS011;12385;51.412;5.540;2023-04-22T02:31:37;22.20;;;16.73;;
24261;SDS011;12385;51.412;5.540;2023-04-22T02:34:03;21.75;;;17.48;;
24261;SDS011;12385;51.412;5.540;2023-04-22T02:36:28;20.48;;;16.52;;
24261;SDS011;12385;51.412;5.540;2023-04-22T02:38:56;25.15;;;17.52;;
24261;SDS011;12385;51.412;5.540;2023-04-22T02:41:22;21.77;;;16.88;;
24261;SDS011;12385;51.412;5.540;2023-04-22T02:43:48;22.15;;;17.10;;
24261;SDS011;12385;51.412;5.540;2023-04-22T02:46:14;19.67;;;16.58;;
24261;SDS011;12385;51.412;5.540;2023-04-22T02:48:43;22.23;;;16.58;;
24261;SDS011;12385;51.412;5.540;2023-04-22T02:51:08;23.45;;;17.92;;
24261;SDS011;12385;51.412;5.540;2023-04-22T02:53:35;25.60;;;18.80;;
24261;SDS011;12385;51.412;5.540;2023-04-22T02:56:01;21.40;;;17.60;;
24261;SDS011;12385;51.412;5.540;2023-04-22T02:58:27;23.67;;;18.40;;
24261;SDS011;12385;51.412;5.540;2023-04-22T03:00:52;25.00;;;18.65;;
24261;SDS011;12385;51.412;5.540;2023-04-22T03:03:20;25.70;;;17.70;;
24261;SDS011;12385;51.412;5.540;2023-04-22T03:05:46;23.23;;;18.17;;
24261;SDS011;12385;51.412;5.540;2023-04-22T03:08:12;27.63;;;19.92;;
24261;SDS011;12385;51.412;5.540;2023-04-22T03:10:38;26.33;;;19.98;;
24261;SDS011;12385;51.412;5.540;2023-04-22T03:13:03;27.13;;;20.27;;
24261;SDS011;12385;51.412;5.540;2023-04-22T03:15:29;25.88;;;20.33;;
24261;SDS011;12385;51.412;5.540;2023-04-22T03:17:54;29.52;;;20.67;;
24261;SDS011;12385;51.412;5.540;2023-04-22T03:20:20;27.27;;;20.48;;
24261;SDS011;12385;51.412;5.540;2023-04-22T03:22:46;29.58;;;21.20;;
24261;SDS011;12385;51.412;5.540;2023-04-22T03:25:11;30.80;;;21.75;;
24261;SDS011;12385;51.412;5.540;2023-04-22T03:27:37;28.15;;;22.38;;
24261;SDS011;12385;51.412;5.540;2023-04-22T03:30:03;28.65;;;22.08;;
24261;SDS011;12385;51.412;5.540;2023-04-22T03:32:29;29.02;;;22.45;;
24261;SDS011;12385;51.412;5.540;2023-04-22T03:34:55;32.00;;;23.25;;
24261;SDS011;12385;51.412;5.540;2023-04-22T03:37:21;36.65;;;23.92;;
24261;SDS011;12385;51.412;5.540;2023-04-22T03:39:46;32.15;;;23.23;;
24261;SDS011;12385;51.412;5.540;2023-04-22T03:42:12;31.08;;;22.98;;
24261;SDS011;12385;51.412;5.540;2023-04-22T03:44:38;30.17;;;22.65;;
24261;SDS011;12385;51.412;5.540;2023-04-22T03:47:04;32.75;;;21.92;;
24261;SDS011;12385;51.412;5.540;2023-04-22T03:49:30;33.95;;;23.02;;
24261;SDS011;12385;51.412;5.540;2023-04-22T03:51:56;28.13;;;21.13;;
24261;SDS011;12385;51.412;5.540;2023-04-22T03:54:23;31.52;;;23.15;;
24261;SDS011;12385;51.412;5.540;2023-04-22T03:56:49;34.28;;;21.83;;
24261;SDS011;12385;51.412;5.540;2023-04-22T03:59:16;36.47;;;25.38;;
24261;SDS011;12385;51.412;5.540;2023-04-22T04:01:42;34.95;;;24.48;;
24261;SDS011;12385;51.412;5.540;2023-04-22T04:04:07;36.58;;;25.77;;
24261;SDS011;12385;51.412;5.540;2023-04-22T04:06:33;33.88;;;24.77;;
24261;SDS011;12385;51.412;5.540;2023-04-22T04:08:58;32.78;;;24.25;;
24261;SDS011;12385;51.412;5.540;2023-04-22T04:11:25;32.72;;;24.73;;
24261;SDS011;12385;51.412;5.540;2023-04-22T04:13:51;30.48;;;23.67;;
24261;SDS011;12385;51.412;5.540;2023-04-22T04:16:16;29.58;;;23.25;;
24261;SDS011;12385;51.412;5.540;2023-04-22T04:18:42;36.55;;;24.55;;
24261;SDS011;12385;51.412;5.540;2023-04-22T04:21:08;30.50;;;23.05;;
24261;SDS011;12385;51.412;5.540;2023-04-22T04:23:33;32.42;;;24.15;;
24261;SDS011;12385;51.412;5.540;2023-04-22T04:25:59;29.02;;;23.05;;
24261;SDS011;12385;51.412;5.540;2023-04-22T04:28:27;29.73;;;22.77;;
24261;SDS011;12385;51.412;5.540;2023-04-22T04:30:56;31.33;;;22.92;;
24261;SDS011;12385;51.412;5.540;2023-04-22T04:33:22;30.48;;;23.08;;
24261;SDS011;12385;51.412;5.540;2023-04-22T04:35:47;30.92;;;23.73;;
24261;SDS011;12385;51.412;5.540;2023-04-22T04:38:13;29.35;;;24.52;;
24261;SDS011;12385;51.412;5.540;2023-04-22T04:40:39;32.92;;;24.55;;
24261;SDS011;12385;51.412;5.540;2023-04-22T04:45:34;37.63;;;25.08;;
24261;SDS011;12385;51.412;5.540;2023-04-22T04:48:01;30.65;;;23.70;;
24261;SDS011;12385;51.412;5.540;2023-04-22T04:50:27;32.17;;;24.27;;
24261;SDS011;12385;51.412;5.540;2023-04-22T04:52:52;34.85;;;25.27;;
24261;SDS011;12385;51.412;5.540;2023-04-22T04:55:18;34.13;;;25.20;;
24261;SDS011;12385;51.412;5.540;2023-04-22T04:57:44;35.85;;;25.75;;
24261;SDS011;12385;51.412;5.540;2023-04-22T05:00:10;43.05;;;28.35;;
24261;SDS011;12385;51.412;5.540;2023-04-22T05:02:38;38.63;;;26.83;;
24261;SDS011;12385;51.412;5.540;2023-04-22T05:05:04;40.08;;;28.20;;
24261;SDS011;12385;51.412;5.540;2023-04-22T05:07:30;36.45;;;27.02;;
24261;SDS011;12385;51.412;5.540;2023-04-22T05:09:56;36.63;;;26.60;;
24261;SDS011;12385;51.412;5.540;2023-04-22T05:12:22;33.78;;;25.55;;
24261;SDS011;12385;51.412;5.540;2023-04-22T05:14:48;36.00;;;26.30;;
24261;SDS011;12385;51.412;5.540;2023-04-22T05:17:15;39.30;;;28.15;;
24261;SDS011;12385;51.412;5.540;2023-04-22T05:19:41;36.63;;;26.77;;
24261;SDS011;12385;51.412;5.540;2023-04-22T05:22:07;37.58;;;27.65;;
24261;SDS011;12385;51.412;5.540;2023-04-22T05:24:32;41.20;;;29.45;;
24261;SDS011;12385;51.412;5.540;2023-04-22T05:26:58;38.55;;;28.45;;
24261;SDS011;12385;51.412;5.540;2023-04-22T05:29:24;32.97;;;26.25;;
24261;SDS011;12385;51.412;5.540;2023-04-22T05:31:51;40.92;;;29.30;;
24261;SDS011;12385;51.412;5.540;2023-04-22T05:34:17;39.17;;;28.42;;
24261;SDS011;12385;51.412;5.540;2023-04-22T05:36:42;41.55;;;29.25;;
24261;SDS011;12385;51.412;5.540;2023-04-22T05:39:08;42.03;;;29.05;;
24261;SDS011;12385;51.412;5.540;2023-04-22T05:41:34;39.10;;;29.02;;
24261;SDS011;12385;51.412;5.540;2023-04-22T05:43:59;47.65;;;32.47;;
24261;SDS011;12385;51.412;5.540;2023-04-22T05:46:25;42.20;;;29.58;;
24261;SDS011;12385;51.412;5.540;2023-04-22T05:48:50;41.03;;;29.33;;
24261;SDS011;12385;51.412;5.540;2023-04-22T05:51:16;39.28;;;29.73;;
24261;SDS011;12385;51.412;5.540;2023-04-22T05:53:42;37.65;;;29.90;;
24261;SDS011;12385;51.412;5.540;2023-04-22T05:56:07;40.38;;;29.40;;
24261;SDS011;12385;51.412;5.540;2023-04-22T05:58:33;40.50;;;29.85;;
24261;SDS011;12385;51.412;5.540;2023-04-22T06:00:59;41.10;;;29.77;;
24261;SDS011;12385;51.412;5.540;2023-04-22T06:03:25;37.00;;;28.50;;
24261;SDS011;12385;51.412;5.540;2023-04-22T06:05:50;38.95;;;27.83;;
24261;SDS011;12385;51.412;5.540;2023-04-22T06:08:16;43.55;;;29.38;;
24261;SDS011;12385;51.412;5.540;2023-04-22T06:10:43;37.50;;;29.05;;
24261;SDS011;12385;51.412;5.540;2023-04-22T06:13:09;38.53;;;29.08;;
24261;SDS011;12385;51.412;5.540;2023-04-22T06:15:34;40.67;;;28.33;;
24261;SDS011;12385;51.412;5.540;2023-04-22T06:18:00;31.95;;;24.77;;
24261;SDS011;12385;51.412;5.540;2023-04-22T06:20:26;38.78;;;24.33;;
24261;SDS011;12385;51.412;5.540;2023-04-22T06:22:51;34.13;;;24.40;;
24261;SDS011;12385;51.412;5.540;2023-04-22T06:25:17;33.58;;;24.08;;
24261;SDS011;12385;51.412;5.540;2023-04-22T06:27:42;35.58;;;24.27;;
24261;SDS011;12385;51.412;5.540;2023-04-22T06:30:10;33.03;;;24.08;;
24261;SDS011;12385;51.412;5.540;2023-04-22T06:32:36;30.80;;;22.42;;
24261;SDS011;12385;51.412;5.540;2023-04-22T06:35:02;37.22;;;22.45;;
24261;SDS011;12385;51.412;5.540;2023-04-22T06:37:27;27.95;;;20.92;;
24261;SDS011;12385;51.412;5.540;2023-04-22T06:39:53;30.42;;;21.17;;
24261;SDS011;12385;51.412;5.540;2023-04-22T06:42:18;31.00;;;21.08;;
24261;SDS011;12385;51.412;5.540;2023-04-22T06:44:44;25.10;;;19.73;;
24261;SDS011;12385;51.412;5.540;2023-04-22T06:47:10;28.02;;;20.45;;
24261;SDS011;12385;51.412;5.540;2023-04-22T06:49:35;29.73;;;19.67;;
24261;SDS011;12385;51.412;5.540;2023-04-22T06:52:03;28.02;;;18.65;;
24261;SDS011;12385;51.412;5.540;2023-04-22T06:54:29;26.85;;;18.25;;
24261;SDS011;12385;51.412;5.540;2023-04-22T06:56:55;28.30;;;18.67;;
24261;SDS011;12385;51.412;5.540;2023-04-22T06:59:21;26.70;;;18.27;;
24261;SDS011;12385;51.412;5.540;2023-04-22T07:01:47;24.40;;;17.90;;
24261;SDS011;12385;51.412;5.540;2023-04-22T07:04:13;24.35;;;18.02;;
24261;SDS011;12385;51.412;5.540;2023-04-22T07:06:38;27.35;;;18.92;;
24261;SDS011;12385;51.412;5.540;2023-04-22T07:09:04;27.48;;;19.15;;
24261;SDS011;12385;51.412;5.540;2023-04-22T07:11:29;23.55;;;16.27;;
24261;SDS011;12385;51.412;5.540;2023-04-22T07:13:55;25.63;;;16.98;;
24261;SDS011;12385;51.412;5.540;2023-04-22T07:16:21;21.17;;;15.50;;
24261;SDS011;12385;51.412;5.540;2023-04-22T07:18:47;20.92;;;15.45;;
24261;SDS011;12385;51.412;5.540;2023-04-22T07:21:13;25.65;;;15.07;;
24261;SDS011;12385;51.412;5.540;2023-04-22T07:23:39;22.95;;;15.68;;
24261;SDS011;12385;51.412;5.540;2023-04-22T07:26:05;22.17;;;13.90;;
24261;SDS011;12385;51.412;5.540;2023-04-22T07:28:30;21.55;;;14.00;;
24261;SDS011;12385;51.412;5.540;2023-04-22T07:30:56;21.88;;;14.35;;
24261;SDS011;12385;51.412;5.540;2023-04-22T07:33:22;18.95;;;14.95;;
24261;SDS011;12385;51.412;5.540;2023-04-22T07:35:47;18.20;;;13.75;;
24261;SDS011;12385;51.412;5.540;2023-04-22T07:38:13;18.98;;;13.20;;
24261;SDS011;12385;51.412;5.540;2023-04-22T07:40:39;21.52;;;14.73;;
24261;SDS011;12385;51.412;5.540;2023-04-22T07:43:05;22.63;;;14.77;;
24261;SDS011;12385;51.412;5.540;2023-04-22T07:45:31;19.60;;;13.95;;
24261;SDS011;12385;51.412;5.540;2023-04-22T07:47:57;19.25;;;12.98;;
24261;SDS011;12385;51.412;5.540;2023-04-22T07:50:23;27.38;;;13.45;;
24261;SDS011;12385;51.412;5.540;2023-04-22T07:52:48;22.35;;;12.93;;
24261;SDS011;12385;51.412;5.540;2023-04-22T07:55:15;17.75;;;12.18;;
24261;SDS011;12385;51.412;5.540;2023-04-22T07:57:41;18.48;;;12.32;;
24261;SDS011;12385;51.412;5.540;2023-04-22T08:00:07;18.55;;;12.23;;
24261;SDS011;12385;51.412;5.540;2023-04-22T08:02:33;16.33;;;11.88;;
24261;SDS011;12385;51.412;5.540;2023-04-22T08:04:59;18.25;;;11.60;;
24261;SDS011;12385;51.412;5.540;2023-04-22T08:07:24;16.80;;;12.13;;
24261;SDS011;12385;51.412;5.540;2023-04-22T08:09:50;15.13;;;12.13;;
24261;SDS011;12385;51.412;5.540;2023-04-22T08:12:16;16.08;;;11.13;;
24261;SDS011;12385;51.412;5.540;2023-04-22T08:14:42;16.08;;;12.05;;
24261;SDS011;12385;51.412;5.540;2023-04-22T08:17:08;16.00;;;11.02;;
24261;SDS011;12385;51.412;5.540;2023-04-22T08:19:33;15.00;;;11.10;;
24261;SDS011;12385;51.412;5.540;2023-04-22T08:21:59;13.60;;;10.52;;
24261;SDS011;12385;51.412;5.540;2023-04-22T08:24:26;14.05;;;10.00;;
24261;SDS011;12385;51.412;5.540;2023-04-22T08:26:51;12.23;;;10.13;;
24261;SDS011;12385;51.412;5.540;2023-04-22T08:29:18;14.38;;;10.20;;
24261;SDS011;12385;51.412;5.540;2023-04-22T08:31:45;14.38;;;9.88;;
24261;SDS011;12385;51.412;5.540;2023-04-22T08:34:11;11.02;;;9.13;;
24261;SDS011;12385;51.412;5.540;2023-04-22T08:36:36;9.65;;;8.20;;
24261;SDS011;12385;51.412;5.540;2023-04-22T08:39:02;12.10;;;8.50;;
24261;SDS011;12385;51.412;5.540;2023-04-22T08:41:27;9.68;;;7.60;;
24261;SDS011;12385;51.412;5.540;2023-04-22T08:43:54;11.85;;;7.72;;
24261;SDS011;12385;51.412;5.540;2023-04-22T08:46:20;9.15;;;7.28;;
24261;SDS011;12385;51.412;5.540;2023-04-22T08:48:48;10.18;;;7.03;;
24261;SDS011;12385;51.412;5.540;2023-04-22T08:51:15;11.60;;;7.57;;
24261;SDS011;12385;51.412;5.540;2023-04-22T08:53:44;10.77;;;7.45;;
24261;SDS011;12385;51.412;5.540;2023-04-22T08:56:14;10.60;;;7.43;;
24261;SDS011;12385;51.412;5.540;2023-04-22T08:58:40;11.15;;;6.75;;
24261;SDS011;12385;51.412;5.540;2023-04-22T09:01:06;10.93;;;7.38;;
24261;SDS011;12385;51.412;5.540;2023-04-22T09:03:33;8.52;;;6.72;;
24261;SDS011;12385;51.412;5.540;2023-04-22T09:06:02;8.57;;;7.03;;
24261;SDS011;12385;51.412;5.540;2023-04-22T09:08:28;11.35;;;7.53;;
24261;SDS011;12385;51.412;5.540;2023-04-22T09:10:54;9.77;;;7.38;;
24261;SDS011;12385;51.412;5.540;2023-04-22T09:13:22;11.63;;;7.22;;
24261;SDS011;12385;51.412;5.540;2023-04-22T09:15:48;9.85;;;7.45;;
24261;SDS011;12385;51.412;5.540;2023-04-22T09:18:15;13.60;;;7.93;;
24261;SDS011;12385;51.412;5.540;2023-04-22T09:20:42;15.38;;;8.20;;
24261;SDS011;12385;51.412;5.540;2023-04-22T09:23:11;9.90;;;7.30;;
24261;SDS011;12385;51.412;5.540;2023-04-22T09:25:37;9.90;;;7.97;;
24261;SDS011;12385;51.412;5.540;2023-04-22T09:28:02;10.40;;;6.95;;
24261;SDS011;12385;51.412;5.540;2023-04-22T09:30:29;11.80;;;6.97;;
24261;SDS011;12385;51.412;5.540;2023-04-22T09:32:57;10.50;;;6.95;;
24261;SDS011;12385;51.412;5.540;2023-04-22T09:35:25;9.20;;;6.80;;
24261;SDS011;12385;51.412;5.540;2023-04-22T09:37:51;8.70;;;6.40;;
24261;SDS011;12385;51.412;5.540;2023-04-22T09:40:18;11.43;;;6.78;;
24261;SDS011;12385;51.412;5.540;2023-04-22T09:42:48;11.63;;;6.72;;
24261;SDS011;12385;51.412;5.540;2023-04-22T09:45:23;9.75;;;6.57;;
24261;SDS011;12385;51.412;5.540;2023-04-22T09:48:01;9.10;;;6.55;;
24261;SDS011;12385;51.412;5.540;2023-04-22T09:50:30;9.13;;;6.72;;
24261;SDS011;12385;51.412;5.540;2023-04-22T09:52:58;9.70;;;6.32;;
24261;SDS011;12385;51.412;5.540;2023-04-22T09:55:26;9.30;;;6.47;;
24261;SDS011;12385;51.412;5.540;2023-04-22T09:57:54;8.25;;;6.20;;
24261;SDS011;12385;51.412;5.540;2023-04-22T10:00:21;7.45;;;6.18;;
24261;SDS011;12385;51.412;5.540;2023-04-22T10:02:48;8.15;;;6.10;;
24261;SDS011;12385;51.412;5.540;2023-04-22T10:05:14;8.85;;;5.60;;
24261;SDS011;12385;51.412;5.540;2023-04-22T10:07:40;9.13;;;5.57;;
24261;SDS011;12385;51.412;5.540;2023-04-22T10:10:07;8.68;;;4.75;;
24261;SDS011;12385;51.412;5.540;2023-04-22T10:12:36;8.80;;;4.80;;
24261;SDS011;12385;51.412;5.540;2023-04-22T10:15:06;7.75;;;4.90;;
24261;SDS011;12385;51.412;5.540;2023-04-22T10:20:03;8.15;;;5.10;;
24261;SDS011;12385;51.412;5.540;2023-04-22T10:22:37;6.07;;;4.63;;
24261;SDS011;12385;51.412;5.540;2023-04-22T10:25:05;6.50;;;4.38;;
24261;SDS011;12385;51.412;5.540;2023-04-22T10:27:37;6.57;;;4.25;;
24261;SDS011;12385;51.412;5.540;2023-04-22T10:30:05;8.38;;;4.50;;
24261;SDS011;12385;51.412;5.540;2023-04-22T10:32:32;5.53;;;4.57;;
24261;SDS011;12385;51.412;5.540;2023-04-22T10:35:07;6.93;;;4.20;;
24261;SDS011;12385;51.412;5.540;2023-04-22T10:37:35;6.90;;;4.45;;
24261;SDS011;12385;51.412;5.540;2023-04-22T10:40:10;9.85;;;4.43;;
24261;SDS011;12385;51.412;5.540;2023-04-22T10:42:41;9.95;;;4.40;;
24261;SDS011;12385;51.412;5.540;2023-04-22T10:45:12;7.03;;;4.20;;
24261;SDS011;12385;51.412;5.540;2023-04-22T10:52:41;5.53;;;4.07;;
24261;SDS011;12385;51.412;5.540;2023-04-22T10:55:08;9.45;;;4.78;;
24261;SDS011;12385;51.412;5.540;2023-04-22T10:57:52;6.65;;;4.60;;
24261;SDS011;12385;51.412;5.540;2023-04-22T11:00:19;8.48;;;4.00;;
24261;SDS011;12385;51.412;5.540;2023-04-22T11:05:31;7.88;;;3.90;;
24261;SDS011;12385;51.412;5.540;2023-04-22T11:08:04;7.38;;;4.18;;
24261;SDS011;12385;51.412;5.540;2023-04-22T11:10:34;8.02;;;4.20;;
24261;SDS011;12385;51.412;5.540;2023-04-22T11:13:05;5.72;;;3.60;;
24261;SDS011;12385;51.412;5.540;2023-04-22T11:15:33;7.72;;;3.10;;
24261;SDS011;12385;51.412;5.540;2023-04-22T11:18:00;7.00;;;3.30;;
24261;SDS011;12385;51.412;5.540;2023-04-22T11:20:27;6.80;;;3.20;;
24261;SDS011;12385;51.412;5.540;2023-04-22T11:22:54;7.68;;;3.53;;
24261;SDS011;12385;51.412;5.540;2023-04-22T11:25:20;5.10;;;2.90;;
24261;SDS011;12385;51.412;5.540;2023-04-22T11:27:47;5.07;;;3.13;;
24261;SDS011;12385;51.412;5.540;2023-04-22T11:30:14;5.55;;;3.47;;
24261;SDS011;12385;51.412;5.540;2023-04-22T11:32:45;5.70;;;3.42;;
24261;SDS011;12385;51.412;5.540;2023-04-22T11:35:19;6.63;;;3.63;;
24261;SDS011;12385;51.412;5.540;2023-04-22T11:37:48;4.70;;;3.25;;
24261;SDS011;12385;51.412;5.540;2023-04-22T11:40:20;4.60;;;3.28;;
24261;SDS011;12385;51.412;5.540;2023-04-22T11:42:51;4.63;;;3.05;;
24261;SDS011;12385;51.412;5.540;2023-04-22T11:45:18;7.68;;;3.67;;
24261;SDS011;12385;51.412;5.540;2023-04-22T11:47:44;7.82;;;3.45;;
24261;SDS011;12385;51.412;5.540;2023-04-22T11:50:11;6.50;;;3.88;;
24261;SDS011;12385;51.412;5.540;2023-04-22T11:52:41;7.47;;;3.53;;
24261;SDS011;12385;51.412;5.540;2023-04-22T11:55:11;5.22;;;3.47;;
24261;SDS011;12385;51.412;5.540;2023-04-22T11:57:37;6.85;;;2.90;;
24261;SDS011;12385;51.412;5.540;2023-04-22T12:00:04;8.35;;;3.25;;
24261;SDS011;12385;51.412;5.540;2023-04-22T12:02:31;7.22;;;3.30;;
24261;SDS011;12385;51.412;5.540;2023-04-22T12:04:57;5.68;;;3.60;;
24261;SDS011;12385;51.412;5.540;2023-04-22T12:07:27;6.93;;;3.95;;
24261;SDS011;12385;51.412;5.540;2023-04-22T12:09:53;5.00;;;3.40;;
24261;SDS011;12385;51.412;5.540;2023-04-22T12:12:28;7.28;;;4.15;;
24261;SDS011;12385;51.412;5.540;2023-04-22T12:14:53;7.10;;;3.80;;
24261;SDS011;12385;51.412;5.540;2023-04-22T12:17:24;6.47;;;4.13;;
24261;SDS011;12385;51.412;5.540;2023-04-22T12:19:53;7.18;;;4.20;;
24261;SDS011;12385;51.412;5.540;2023-04-22T12:22:26;7.18;;;3.65;;
24261;SDS011;12385;51.412;5.540;2023-04-22T12:24:52;5.63;;;3.65;;
24261;SDS011;12385;51.412;5.540;2023-04-22T12:27:18;7.72;;;3.67;;
24261;SDS011;12385;51.412;5.540;2023-04-22T12:29:51;6.38;;;3.67;;
24261;SDS011;12385;51.412;5.540;2023-04-22T12:32:21;6.47;;;3.55;;
24261;SDS011;12385;51.412;5.540;2023-04-22T12:34:49;5.15;;;3.92;;
24261;SDS011;12385;51.412;5.540;2023-04-22T12:37:15;7.97;;;4.20;;
24261;SDS011;12385;51.412;5.540;2023-04-22T12:39:42;5.65;;;4.13;;
24261;SDS011;12385;51.412;5.540;2023-04-22T12:42:08;10.95;;;4.50;;
24261;SDS011;12385;51.412;5.540;2023-04-22T12:44:34;9.55;;;5.30;;
24261;SDS011;12385;51.412;5.540;2023-04-22T12:47:00;10.07;;;5.78;;
24261;SDS011;12385;51.412;5.540;2023-04-22T12:49:26;10.77;;;6.20;;
24261;SDS011;12385;51.412;5.540;2023-04-22T12:51:51;10.23;;;7.65;;
24261;SDS011;12385;51.412;5.540;2023-04-22T12:54:18;9.45;;;6.97;;
24261;SDS011;12385;51.412;5.540;2023-04-22T12:56:44;11.10;;;7.55;;
24261;SDS011;12385;51.412;5.540;2023-04-22T12:59:10;11.50;;;8.35;;
24261;SDS011;12385;51.412;5.540;2023-04-22T13:01:36;13.88;;;9.60;;
24261;SDS011;12385;51.412;5.540;2023-04-22T13:04:02;15.52;;;10.55;;
24261;SDS011;12385;51.412;5.540;2023-04-22T13:06:28;13.57;;;11.13;;
24261;SDS011;12385;51.412;5.540;2023-04-22T13:08:55;16.00;;;11.68;;
24261;SDS011;12385;51.412;5.540;2023-04-22T13:11:21;16.92;;;12.32;;
24261;SDS011;12385;51.412;5.540;2023-04-22T13:13:48;16.98;;;13.20;;
24261;SDS011;12385;51.412;5.540;2023-04-22T13:16:14;15.45;;;12.63;;
24261;SDS011;12385;51.412;5.540;2023-04-22T13:18:40;16.88;;;13.30;;
24261;SDS011;12385;51.412;5.540;2023-04-22T13:21:05;18.73;;;13.27;;
24261;SDS011;12385;51.412;5.540;2023-04-22T13:23:31;19.52;;;13.02;;
24261;SDS011;12385;51.412;5.540;2023-04-22T13:25:57;16.10;;;12.52;;
24261;SDS011;12385;51.412;5.540;2023-04-22T13:28:23;15.75;;;12.85;;
24261;SDS011;12385;51.412;5.540;2023-04-22T13:30:50;18.15;;;11.93;;
24261;SDS011;12385;51.412;5.540;2023-04-22T13:33:16;14.98;;;12.25;;
24261;SDS011;12385;51.412;5.540;2023-04-22T13:35:41;16.42;;;12.30;;
24261;SDS011;12385;51.412;5.540;2023-04-22T13:38:07;15.63;;;11.32;;
24261;SDS011;12385;51.412;5.540;2023-04-22T13:40:33;16.80;;;11.50;;
24261;SDS011;12385;51.412;5.540;2023-04-22T13:42:59;17.33;;;11.50;;
24261;SDS011;12385;51.412;5.540;2023-04-22T13:45:24;15.82;;;10.80;;
24261;SDS011;12385;51.412;5.540;2023-04-22T13:47:50;16.00;;;11.15;;
24261;SDS011;12385;51.412;5.540;2023-04-22T13:50:17;12.50;;;10.18;;
24261;SDS011;12385;51.412;5.540;2023-04-22T13:52:42;14.15;;;10.88;;
24261;SDS011;12385;51.412;5.540;2023-04-22T13:55:08;13.93;;;9.90;;
24261;SDS011;12385;51.412;5.540;2023-04-22T13:57:34;13.40;;;9.50;;
24261;SDS011;12385;51.412;5.540;2023-04-22T14:00:00;12.52;;;8.25;;
24261;SDS011;12385;51.412;5.540;2023-04-22T14:02:25;9.45;;;7.50;;
24261;SDS011;12385;51.412;5.540;2023-04-22T14:04:51;10.30;;;7.40;;
24261;SDS011;12385;51.412;5.540;2023-04-22T14:07:17;9.93;;;7.18;;
24261;SDS011;12385;51.412;5.540;2023-04-22T14:09:42;7.63;;;6.28;;
24261;SDS011;12385;51.412;5.540;2023-04-22T14:12:08;9.82;;;5.80;;
24261;SDS011;12385;51.412;5.540;2023-04-22T14:14:35;10.57;;;5.57;;
24261;SDS011;12385;51.412;5.540;2023-04-22T14:17:00;6.55;;;5.35;;
24261;SDS011;12385;51.412;5.540;2023-04-22T14:19:26;6.63;;;5.38;;
24261;SDS011;12385;51.412;5.540;2023-04-22T14:21:54;7.97;;;6.13;;
24261;SDS011;12385;51.412;5.540;2023-04-22T14:24:21;8.05;;;5.75;;
24261;SDS011;12385;51.412;5.540;2023-04-22T14:26:48;8.32;;;6.20;;
24261;SDS011;12385;51.412;5.540;2023-04-22T14:29:15;7.88;;;6.20;;
24261;SDS011;12385;51.412;5.540;2023-04-22T14:31:41;9.43;;;5.70;;
24261;SDS011;12385;51.412;5.540;2023-04-22T14:34:07;6.45;;;5.25;;
24261;SDS011;12385;51.412;5.540;2023-04-22T14:36:33;9.38;;;5.65;;
24261;SDS011;12385;51.412;5.540;2023-04-22T14:38:59;7.22;;;5.85;;